createdAt,value
2022-11-24T02:18:06.357Z,10.74
2022-11-24T02:23:13.406Z,10.70
2022-11-24T02:28:19.219Z,10.69
2022-11-24T02:33:24.970Z,10.65
2022-11-24T02:38:32.957Z,10.65
2022-11-24T02:43:39.798Z,10.65
2022-11-24T02:48:44.289Z,10.65
2022-11-24T02:53:48.797Z,10.64
2022-11-24T02:58:53.182Z,10.64
2022-11-24T03:03:57.489Z,10.63
2022-11-24T03:09:02.113Z,10.63
2022-11-24T03:14:06.845Z,10.63
2022-11-24T03:19:10.917Z,10.62
2022-11-24T03:24:15.306Z,10.61
2022-11-24T03:29:20.027Z,10.61
2022-11-24T03:34:24.681Z,10.61
2022-11-24T03:39:29.174Z,10.60
2022-11-24T03:44:33.642Z,10.59
2022-11-24T03:49:38.469Z,10.58
2022-11-24T03:54:43.012Z,10.58
2022-11-24T03:59:47.668Z,10.58
2022-11-24T04:04:52.368Z,10.58
2022-11-24T04:09:56.829Z,10.57
2022-11-24T04:15:00.996Z,10.57
2022-11-24T04:20:06.337Z,10.55
2022-11-24T04:25:11.293Z,10.54
2022-11-24T04:30:16.152Z,10.55
2022-11-24T04:35:21.013Z,10.55
2022-11-24T04:40:25.231Z,10.54
2022-11-24T04:45:29.758Z,10.54
2022-11-24T04:50:34.056Z,10.52
2022-11-24T04:55:39.662Z,10.53
2022-11-24T05:00:44.049Z,10.53
2022-11-24T05:05:48.308Z,10.52
2022-11-24T05:10:52.982Z,10.51
2022-11-24T05:15:57.444Z,10.50
2022-11-24T05:21:02.210Z,10.51
2022-11-24T05:26:06.976Z,10.51
2022-11-24T05:31:11.651Z,10.51
2022-11-24T05:36:30.598Z,10.52
2022-11-24T05:41:35.489Z,10.52
2022-11-24T05:46:39.964Z,10.51
2022-11-24T05:51:44.272Z,10.50
2022-11-24T05:56:49.130Z,10.50
2022-11-24T06:01:53.694Z,10.50
2022-11-24T06:06:58.142Z,10.49
2022-11-24T06:12:03.250Z,10.48
2022-11-24T06:17:07.688Z,10.47
2022-11-24T06:22:12.416Z,10.49
2022-11-24T06:27:16.677Z,10.47
2022-11-24T06:32:20.958Z,10.46
2022-11-24T06:37:25.243Z,10.46
2022-11-24T06:42:29.927Z,10.44
2022-11-24T06:47:34.451Z,10.44
2022-11-24T06:52:38.837Z,10.44
2022-11-24T06:57:43.057Z,10.43
2022-11-24T07:02:47.799Z,10.42
2022-11-24T07:07:52.791Z,10.42
2022-11-24T07:12:57.243Z,10.41
2022-11-24T07:18:01.256Z,10.41
2022-11-24T07:23:06.539Z,10.41
2022-11-24T07:28:10.982Z,10.40
2022-11-24T07:33:15.981Z,10.40
2022-11-24T07:38:20.498Z,10.39
2022-11-24T07:43:25.010Z,10.39
2022-11-24T07:48:29.721Z,10.38
2022-11-24T07:53:34.336Z,10.38
2022-11-24T07:58:38.627Z,10.38
2022-11-24T08:03:43.375Z,10.38
2022-11-24T08:08:48.287Z,10.38
2022-11-24T08:13:52.511Z,10.37
2022-11-24T08:18:57.446Z,10.38
2022-11-24T08:24:01.877Z,10.36
2022-11-24T08:29:06.548Z,10.35
2022-11-24T08:34:11.446Z,10.35
2022-11-24T08:39:16.003Z,10.34
2022-11-24T08:44:20.212Z,10.34
2022-11-24T08:49:24.639Z,10.32
2022-11-24T08:54:28.728Z,10.33
2022-11-24T08:59:33.241Z,10.33
2022-11-24T09:04:38.178Z,10.31
2022-11-24T09:09:42.699Z,10.32
2022-11-24T09:14:47.236Z,10.31
2022-11-24T09:19:51.606Z,10.30
2022-11-24T09:24:56.178Z,10.30
2022-11-24T09:30:00.670Z,10.30
2022-11-24T09:35:05.653Z,10.28
2022-11-24T09:40:13.276Z,10.27
2022-11-24T09:45:49.336Z,10.27
2022-11-24T09:50:53.248Z,10.29
2022-11-24T09:55:59.350Z,10.29
2022-11-24T10:01:05.271Z,10.26
2022-11-24T10:06:19.129Z,10.25
2022-11-24T10:11:30.350Z,10.25
2022-11-24T10:16:43.797Z,10.25
2022-11-24T10:22:02.188Z,10.26
2022-11-24T10:27:11.348Z,10.24
2022-11-24T10:32:18.180Z,10.24
2022-11-24T10:37:27.448Z,10.22
2022-11-24T10:42:33.159Z,10.23
2022-11-24T10:47:37.349Z,10.23
2022-11-24T10:52:42.407Z,10.21
2022-11-24T10:57:46.591Z,10.21
2022-11-24T11:02:51.909Z,10.21
2022-11-24T11:08:10.089Z,10.20
2022-11-24T11:13:27.460Z,10.21
2022-11-24T11:18:32.833Z,10.21
2022-11-24T11:23:37.708Z,10.19
2022-11-24T11:28:41.978Z,10.18
2022-11-24T11:34:16.661Z,10.17
2022-11-24T11:39:23.631Z,10.20
2022-11-24T11:44:36.343Z,10.17
2022-11-24T11:49:41.331Z,10.15
2022-11-24T11:55:05.956Z,10.14
2022-11-24T12:00:14.836Z,10.16
2022-11-24T12:05:25.972Z,10.16
2022-11-24T12:10:35.314Z,10.14
2022-11-24T12:15:42.270Z,10.13
2022-11-24T12:20:56.308Z,10.13
2022-11-24T12:26:06.290Z,10.12
2022-11-24T12:31:15.594Z,10.11
2022-11-24T12:36:27.351Z,10.10
2022-11-24T12:41:42.831Z,10.09
2022-11-24T12:46:52.068Z,10.10
2022-11-24T12:51:59.160Z,10.09
2022-11-24T12:57:07.987Z,10.08
2022-11-24T13:02:19.415Z,10.08
2022-11-24T13:07:28.062Z,10.06
2022-11-24T13:12:32.698Z,10.06
2022-11-24T13:17:52.442Z,10.05
2022-11-24T13:23:03.079Z,10.07
2022-11-24T13:28:07.418Z,10.05
2022-11-24T13:33:27.702Z,10.04
2022-11-24T13:38:42.275Z,10.04
2022-11-24T13:44:00.410Z,10.02
2022-11-24T13:49:14.470Z,10.02
2022-11-24T13:54:19.159Z,10.00
2022-11-24T13:59:27.996Z,10.00
2022-11-24T14:04:33.291Z,10.00
2022-11-24T14:09:41.394Z,9.98
2022-11-24T14:14:46.105Z,9.98
2022-11-24T14:19:51.266Z,9.97
2022-11-24T14:24:56.570Z,9.97
2022-11-24T14:30:01.500Z,9.96
2022-11-24T14:35:16.817Z,9.94
2022-11-24T14:40:41.001Z,9.95
2022-11-24T14:45:50.347Z,9.94
2022-11-24T14:50:55.457Z,9.94
2022-11-24T14:56:10.060Z,9.91
2022-11-24T15:01:21.020Z,9.91
2022-11-24T15:06:25.541Z,9.91
2022-11-24T15:11:31.085Z,9.90
2022-11-24T15:16:35.283Z,9.89
2022-11-24T15:21:40.472Z,9.89
2022-11-24T15:26:45.307Z,9.87
2022-11-24T15:31:52.878Z,9.87
2022-11-24T15:36:57.871Z,9.87
2022-11-24T15:42:02.251Z,9.87
2022-11-24T15:47:06.906Z,9.85
2022-11-24T15:52:14.968Z,9.85
2022-11-24T15:57:19.611Z,9.85
2022-11-24T16:02:23.968Z,9.83
2022-11-24T16:07:28.484Z,9.82
2022-11-24T16:12:32.988Z,9.82
2022-11-24T16:17:37.519Z,9.82
2022-11-24T16:22:42.089Z,9.82
2022-11-24T16:27:46.728Z,9.81
2022-11-24T16:32:51.090Z,9.80
2022-11-24T16:37:55.728Z,9.80
2022-11-24T16:43:00.248Z,9.80
2022-11-24T16:48:04.970Z,9.79
2022-11-24T16:53:09.408Z,9.78
2022-11-24T16:58:14.173Z,9.79
2022-11-24T17:03:18.912Z,9.78
2022-11-24T17:08:23.149Z,9.78
2022-11-24T17:13:27.439Z,9.78
2022-11-24T17:18:31.941Z,9.77
2022-11-24T17:23:36.702Z,9.77
2022-11-24T17:28:41.159Z,9.77
2022-11-24T17:33:45.528Z,9.76
2022-11-24T17:38:49.988Z,9.76
2022-11-24T17:43:55.583Z,9.75
2022-11-24T17:49:00.081Z,9.76
2022-11-24T17:54:31.188Z,9.77
2022-11-24T17:59:29.636Z,9.77
2022-11-24T18:04:34.870Z,9.77
2022-11-24T18:09:39.047Z,9.75
2022-11-24T18:14:43.471Z,9.74
2022-11-24T18:19:47.953Z,9.75
2022-11-24T18:24:52.698Z,9.74
2022-11-24T18:29:57.088Z,9.74
2022-11-24T18:35:01.579Z,9.73
2022-11-24T18:40:07.195Z,9.73
2022-11-24T18:45:12.199Z,9.71
2022-11-24T18:50:17.037Z,9.72
2022-11-24T18:55:21.340Z,9.70
2022-11-24T19:00:26.238Z,9.71
2022-11-24T19:05:30.618Z,9.71
2022-11-24T19:10:37.466Z,9.70
2022-11-24T19:15:41.898Z,9.69
2022-11-24T19:20:46.282Z,9.70
2022-11-24T19:25:50.619Z,9.68
2022-11-24T19:31:00.208Z,9.69
2022-11-24T19:36:05.770Z,9.68
2022-11-24T19:41:11.038Z,9.69
2022-11-24T19:46:16.186Z,9.67
2022-11-24T19:51:22.167Z,9.67
2022-11-24T19:56:27.442Z,9.65
2022-11-24T20:01:32.763Z,9.64
2022-11-24T20:06:38.099Z,9.67
2022-11-24T20:11:42.482Z,9.65
2022-11-24T20:16:47.444Z,9.64
2022-11-24T20:21:53.426Z,9.65
2022-11-24T20:26:58.675Z,9.64
2022-11-24T20:32:03.344Z,9.64
2022-11-24T20:37:13.178Z,9.63
2022-11-24T20:42:18.199Z,9.64
2022-11-24T20:47:22.799Z,9.63
2022-11-24T20:52:27.424Z,9.62
2022-11-24T20:57:31.798Z,9.61
2022-11-24T21:02:36.155Z,9.61
2022-11-24T21:07:40.596Z,9.60
2022-11-24T21:12:45.028Z,9.60
2022-11-24T21:17:49.168Z,9.60
2022-11-24T21:22:53.728Z,9.58
2022-11-24T21:27:58.189Z,9.58
2022-11-24T21:33:03.865Z,9.59
2022-11-24T21:38:08.450Z,9.58
2022-11-24T21:43:13.016Z,9.58
2022-11-24T21:48:17.738Z,9.57
2022-11-24T21:53:22.258Z,9.57
2022-11-24T21:58:27.362Z,9.57
2022-11-24T22:03:31.864Z,9.56
2022-11-24T22:08:36.512Z,9.55
2022-11-24T22:13:41.278Z,9.56
2022-11-24T22:18:46.242Z,9.55
2022-11-24T22:23:52.502Z,9.54
2022-11-24T22:28:57.408Z,9.54
2022-11-24T22:34:01.947Z,9.54
2022-11-24T22:39:06.911Z,9.52
2022-11-24T22:44:11.437Z,9.53
2022-11-24T22:49:15.848Z,9.52
2022-11-24T22:54:20.756Z,9.52
2022-11-24T22:59:25.538Z,9.51
2022-11-24T23:04:29.975Z,9.51
2022-11-24T23:09:34.549Z,9.51
2022-11-24T23:14:38.996Z,9.51
2022-11-24T23:19:43.487Z,9.49
2022-11-24T23:24:47.996Z,9.49
2022-11-24T23:29:52.507Z,9.49
2022-11-24T23:34:57.152Z,9.49
2022-11-24T23:40:01.699Z,9.48
2022-11-24T23:45:08.578Z,9.47
2022-11-24T23:50:13.799Z,9.47
2022-11-24T23:55:18.857Z,9.47
